Kelowna, Canada
Current Conditions -  °F | °C
As of 1:00 PM on Saturday 22 Nov 2014 (Local Time) from CYLW Reporting Station
Broken Clouds Broken Clouds  
Wind Chill:   Ceiling: 6000
Heat Index:   Visibility: 9mi
Dew Point:   Wind: 3mph
Humidity: 66%   Direction: 200°SSW
Pressure: 29.65"   Gusts: NA
Location:  49.89°N, 119.5°W
Report Text: CYLW 222100Z AUTO 20003KT 170V230 9SM BKN060 07/01 A2965 RMK SLP053
Loading
Personal Weather Stations






























Interactive Weather Map New forecast layout! Learn more

10-Day Weather Forecast

Advertisements
Track Severe Weather on mobile